sensor_id;sensor_type;location;lat;lon;timestamp;temperature;humidity
11963;DHT22;62678;52.130;5.584;2022-10-16T00:01:06;13.30;99.90
11963;DHT22;62678;52.130;5.584;2022-10-16T00:03:33;13.30;99.90
11963;DHT22;62678;52.130;5.584;2022-10-16T00:06:00;13.30;99.90
11963;DHT22;62678;52.130;5.584;2022-10-16T00:08:28;13.30;99.90
11963;DHT22;62678;52.130;5.584;2022-10-16T00:10:59;13.30;99.90
11963;DHT22;62678;52.130;5.584;2022-10-16T00:13:26;13.40;99.90
11963;DHT22;62678;52.130;5.584;2022-10-16T00:15:57;13.40;99.90
11963;DHT22;62678;52.130;5.584;2022-10-16T00:18:24;13.40;99.90
11963;DHT22;62678;52.130;5.584;2022-10-16T00:20:51;13.30;99.90
11963;DHT22;62678;52.130;5.584;2022-10-16T00:23:18;13.40;99.90
11963;DHT22;62678;52.130;5.584;2022-10-16T00:25:54;13.40;99.90
11963;DHT22;62678;52.130;5.584;2022-10-16T00:28:22;13.40;99.90
11963;DHT22;62678;52.130;5.584;2022-10-16T00:30:49;13.40;99.90
11963;DHT22;62678;52.130;5.584;2022-10-16T00:33:17;13.40;99.90
11963;DHT22;62678;52.130;5.584;2022-10-16T00:35:44;13.40;99.90
11963;DHT22;62678;52.130;5.584;2022-10-16T00:38:11;13.40;99.90
11963;DHT22;62678;52.130;5.584;2022-10-16T00:40:40;13.40;99.90
11963;DHT22;62678;52.130;5.584;2022-10-16T00:43:14;13.40;99.90
11963;DHT22;62678;52.130;5.584;2022-10-16T00:45:58;13.40;99.90
11963;DHT22;62678;52.130;5.584;2022-10-16T00:48:27;13.50;99.90
11963;DHT22;62678;52.130;5.584;2022-10-16T00:50:54;13.50;99.90
11963;DHT22;62678;52.130;5.584;2022-10-16T00:53:21;13.60;99.90
11963;DHT22;62678;52.130;5.584;2022-10-16T00:55:48;13.50;99.90
11963;DHT22;62678;52.130;5.584;2022-10-16T00:58:15;13.60;99.90
11963;DHT22;62678;52.130;5.584;2022-10-16T01:00:42;13.60;99.90
11963;DHT22;62678;52.130;5.584;2022-10-16T01:03:23;13.60;99.90
11963;DHT22;62678;52.130;5.584;2022-10-16T01:05:58;13.60;99.90
11963;DHT22;62678;52.130;5.584;2022-10-16T01:08:35;13.70;99.90
11963;DHT22;62678;52.130;5.584;2022-10-16T01:11:11;13.70;99.90
11963;DHT22;62678;52.130;5.584;2022-10-16T01:13:42;13.70;99.90
11963;DHT22;62678;52.130;5.584;2022-10-16T01:16:15;13.70;99.90
11963;DHT22;62678;52.130;5.584;2022-10-16T01:18:46;13.80;99.90
11963;DHT22;62678;52.130;5.584;2022-10-16T01:21:21;13.80;99.90
11963;DHT22;62678;52.130;5.584;2022-10-16T01:23:55;13.70;99.90
11963;DHT22;62678;52.130;5.584;2022-10-16T01:26:36;13.80;99.90
11963;DHT22;62678;52.130;5.584;2022-10-16T01:29:09;13.80;99.90
11963;DHT22;62678;52.130;5.584;2022-10-16T01:31:41;13.80;99.90
11963;DHT22;62678;52.130;5.584;2022-10-16T01:34:14;13.80;99.90
11963;DHT22;62678;52.130;5.584;2022-10-16T01:36:45;13.80;99.90
11963;DHT22;62678;52.130;5.584;2022-10-16T01:39:13;13.80;99.90
11963;DHT22;62678;52.130;5.584;2022-10-16T01:41:44;13.80;99.90
11963;DHT22;62678;52.130;5.584;2022-10-16T01:44:17;13.80;99.90
11963;DHT22;62678;52.130;5.584;2022-10-16T01:46:49;13.80;99.90
11963;DHT22;62678;52.130;5.584;2022-10-16T01:49:17;13.90;99.90
11963;DHT22;62678;52.130;5.584;2022-10-16T01:51:48;13.80;99.90
11963;DHT22;62678;52.130;5.584;2022-10-16T01:54:17;13.80;99.90
11963;DHT22;62678;52.130;5.584;2022-10-16T01:56:48;13.90;99.90
11963;DHT22;62678;52.130;5.584;2022-10-16T01:59:19;13.90;99.90
11963;DHT22;62678;52.130;5.584;2022-10-16T02:01:50;13.80;99.90
11963;DHT22;62678;52.130;5.584;2022-10-16T02:04:20;13.80;99.90
11963;DHT22;62678;52.130;5.584;2022-10-16T02:06:48;13.90;99.90
11963;DHT22;62678;52.130;5.584;2022-10-16T02:09:14;13.90;99.90
11963;DHT22;62678;52.130;5.584;2022-10-16T02:11:42;13.90;99.90
11963;DHT22;62678;52.130;5.584;2022-10-16T02:14:09;13.90;99.90
11963;DHT22;62678;52.130;5.584;2022-10-16T02:16:40;13.90;99.90
11963;DHT22;62678;52.130;5.584;2022-10-16T02:19:07;13.90;99.90
11963;DHT22;62678;52.130;5.584;2022-10-16T02:21:39;13.90;99.90
11963;DHT22;62678;52.130;5.584;2022-10-16T02:24:12;13.90;99.90
11963;DHT22;62678;52.130;5.584;2022-10-16T02:26:48;13.90;99.90
11963;DHT22;62678;52.130;5.584;2022-10-16T02:29:20;13.90;99.90
11963;DHT22;62678;52.130;5.584;2022-10-16T02:31:53;13.90;99.90
11963;DHT22;62678;52.130;5.584;2022-10-16T02:34:21;13.90;99.90
11963;DHT22;62678;52.130;5.584;2022-10-16T02:36:50;13.90;99.90
11963;DHT22;62678;52.130;5.584;2022-10-16T02:39:18;13.80;99.90
11963;DHT22;62678;52.130;5.584;2022-10-16T02:41:46;13.80;99.90
11963;DHT22;62678;52.130;5.584;2022-10-16T02:44:12;13.80;99.90
11963;DHT22;62678;52.130;5.584;2022-10-16T02:46:39;13.90;99.90
11963;DHT22;62678;52.130;5.584;2022-10-16T02:49:07;13.80;99.90
11963;DHT22;62678;52.130;5.584;2022-10-16T02:51:34;13.80;99.90
11963;DHT22;62678;52.130;5.584;2022-10-16T02:54:01;13.80;99.90
11963;DHT22;62678;52.130;5.584;2022-10-16T02:56:28;13.90;99.90
11963;DHT22;62678;52.130;5.584;2022-10-16T02:58:55;13.90;99.90
11963;DHT22;62678;52.130;5.584;2022-10-16T03:01:22;13.80;99.90
11963;DHT22;62678;52.130;5.584;2022-10-16T03:03:49;13.90;99.90
11963;DHT22;62678;52.130;5.584;2022-10-16T03:06:17;13.80;99.90
11963;DHT22;62678;52.130;5.584;2022-10-16T03:08:44;13.80;99.90
11963;DHT22;62678;52.130;5.584;2022-10-16T03:11:11;13.70;99.90
11963;DHT22;62678;52.130;5.584;2022-10-16T03:13:37;13.70;99.90
11963;DHT22;62678;52.130;5.584;2022-10-16T03:16:04;13.70;99.90
11963;DHT22;62678;52.130;5.584;2022-10-16T03:18:31;13.70;99.90
11963;DHT22;62678;52.130;5.584;2022-10-16T03:20:58;13.70;99.90
11963;DHT22;62678;52.130;5.584;2022-10-16T03:23:26;13.70;99.90
11963;DHT22;62678;52.130;5.584;2022-10-16T03:25:52;13.70;99.90
11963;DHT22;62678;52.130;5.584;2022-10-16T03:28:19;13.60;99.90
11963;DHT22;62678;52.130;5.584;2022-10-16T03:30:46;13.60;99.90
11963;DHT22;62678;52.130;5.584;2022-10-16T03:33:13;13.60;99.90
11963;DHT22;62678;52.130;5.584;2022-10-16T03:35:39;13.50;99.90
11963;DHT22;62678;52.130;5.584;2022-10-16T03:38:06;13.50;99.90
11963;DHT22;62678;52.130;5.584;2022-10-16T03:40:34;13.50;99.90
11963;DHT22;62678;52.130;5.584;2022-10-16T03:43:01;13.50;99.90
11963;DHT22;62678;52.130;5.584;2022-10-16T03:45:28;13.50;99.90
11963;DHT22;62678;52.130;5.584;2022-10-16T03:47:54;13.50;99.90
11963;DHT22;62678;52.130;5.584;2022-10-16T03:50:21;13.50;99.90
11963;DHT22;62678;52.130;5.584;2022-10-16T03:52:48;13.50;99.90
11963;DHT22;62678;52.130;5.584;2022-10-16T03:55:15;13.50;99.90
11963;DHT22;62678;52.130;5.584;2022-10-16T03:57:43;13.50;99.90
11963;DHT22;62678;52.130;5.584;2022-10-16T04:00:12;13.50;99.90
11963;DHT22;62678;52.130;5.584;2022-10-16T04:02:39;13.50;99.90
11963;DHT22;62678;52.130;5.584;2022-10-16T04:05:06;13.50;99.90
11963;DHT22;62678;52.130;5.584;2022-10-16T04:07:34;13.50;99.90
11963;DHT22;62678;52.130;5.584;2022-10-16T04:10:01;13.50;99.90
11963;DHT22;62678;52.130;5.584;2022-10-16T04:12:28;13.40;99.90
11963;DHT22;62678;52.130;5.584;2022-10-16T04:14:56;13.40;99.90
11963;DHT22;62678;52.130;5.584;2022-10-16T04:17:23;13.40;99.90
11963;DHT22;62678;52.130;5.584;2022-10-16T04:19:50;13.40;99.90
11963;DHT22;62678;52.130;5.584;2022-10-16T04:22:16;13.30;99.90
11963;DHT22;62678;52.130;5.584;2022-10-16T04:24:43;13.30;99.90
11963;DHT22;62678;52.130;5.584;2022-10-16T04:27:10;13.40;99.90
11963;DHT22;62678;52.130;5.584;2022-10-16T04:29:37;13.30;99.90
11963;DHT22;62678;52.130;5.584;2022-10-16T04:32:05;13.20;99.90
11963;DHT22;62678;52.130;5.584;2022-10-16T04:34:34;13.20;99.90
11963;DHT22;62678;52.130;5.584;2022-10-16T04:37:00;13.30;99.90
11963;DHT22;62678;52.130;5.584;2022-10-16T04:39:27;13.30;99.90
11963;DHT22;62678;52.130;5.584;2022-10-16T04:41:54;13.20;99.90
11963;DHT22;62678;52.130;5.584;2022-10-16T04:44:21;13.20;99.90
11963;DHT22;62678;52.130;5.584;2022-10-16T04:46:49;13.10;99.90
11963;DHT22;62678;52.130;5.584;2022-10-16T04:49:18;13.10;99.90
11963;DHT22;62678;52.130;5.584;2022-10-16T04:51:44;13.10;99.90
11963;DHT22;62678;52.130;5.584;2022-10-16T04:54:11;13.10;99.90
11963;DHT22;62678;52.130;5.584;2022-10-16T04:56:38;13.10;99.90
11963;DHT22;62678;52.130;5.584;2022-10-16T04:59:12;13.20;99.90
11963;DHT22;62678;52.130;5.584;2022-10-16T05:01:39;13.20;99.90
11963;DHT22;62678;52.130;5.584;2022-10-16T05:04:05;13.20;99.90
11963;DHT22;62678;52.130;5.584;2022-10-16T05:06:34;13.20;99.90
11963;DHT22;62678;52.130;5.584;2022-10-16T05:09:00;13.20;99.90
11963;DHT22;62678;52.130;5.584;2022-10-16T05:11:27;13.20;99.90
11963;DHT22;62678;52.130;5.584;2022-10-16T05:13:54;13.20;99.90
11963;DHT22;62678;52.130;5.584;2022-10-16T05:16:21;13.20;99.90
11963;DHT22;62678;52.130;5.584;2022-10-16T05:18:47;13.20;99.90
11963;DHT22;62678;52.130;5.584;2022-10-16T05:21:14;13.10;99.90
11963;DHT22;62678;52.130;5.584;2022-10-16T05:23:42;13.10;99.90
11963;DHT22;62678;52.130;5.584;2022-10-16T05:26:09;13.10;99.90
11963;DHT22;62678;52.130;5.584;2022-10-16T05:28:36;13.00;99.90
11963;DHT22;62678;52.130;5.584;2022-10-16T05:31:04;13.00;99.90
11963;DHT22;62678;52.130;5.584;2022-10-16T05:33:32;13.00;99.90
11963;DHT22;62678;52.130;5.584;2022-10-16T05:36:01;12.90;99.90
11963;DHT22;62678;52.130;5.584;2022-10-16T05:38:28;12.90;99.90
11963;DHT22;62678;52.130;5.584;2022-10-16T05:40:56;12.80;99.90
11963;DHT22;62678;52.130;5.584;2022-10-16T05:43:23;12.90;99.90
11963;DHT22;62678;52.130;5.584;2022-10-16T05:45:54;12.80;99.90
11963;DHT22;62678;52.130;5.584;2022-10-16T05:48:21;12.80;99.90
11963;DHT22;62678;52.130;5.584;2022-10-16T05:50:48;12.80;99.90
11963;DHT22;62678;52.130;5.584;2022-10-16T05:53:15;12.90;99.90
11963;DHT22;62678;52.130;5.584;2022-10-16T05:55:41;12.90;99.90
11963;DHT22;62678;52.130;5.584;2022-10-16T05:58:10;12.90;99.90
11963;DHT22;62678;52.130;5.584;2022-10-16T06:00:36;13.00;99.90
11963;DHT22;62678;52.130;5.584;2022-10-16T06:03:03;13.00;99.90
11963;DHT22;62678;52.130;5.584;2022-10-16T06:05:32;13.00;99.90
11963;DHT22;62678;52.130;5.584;2022-10-16T06:07:58;13.00;99.90
11963;DHT22;62678;52.130;5.584;2022-10-16T06:10:25;13.10;99.90
11963;DHT22;62678;52.130;5.584;2022-10-16T06:12:52;13.20;99.90
11963;DHT22;62678;52.130;5.584;2022-10-16T06:15:20;13.10;99.90
11963;DHT22;62678;52.130;5.584;2022-10-16T06:17:47;13.20;99.90
11963;DHT22;62678;52.130;5.584;2022-10-16T06:20:14;13.20;99.90
11963;DHT22;62678;52.130;5.584;2022-10-16T06:22:40;13.20;99.90
11963;DHT22;62678;52.130;5.584;2022-10-16T06:25:08;13.30;99.90
11963;DHT22;62678;52.130;5.584;2022-10-16T06:27:34;13.40;99.90
11963;DHT22;62678;52.130;5.584;2022-10-16T06:30:01;13.40;99.90
11963;DHT22;62678;52.130;5.584;2022-10-16T06:32:30;13.40;99.90
11963;DHT22;62678;52.130;5.584;2022-10-16T06:34:57;13.40;99.90
11963;DHT22;62678;52.130;5.584;2022-10-16T06:37:24;13.50;99.90
11963;DHT22;62678;52.130;5.584;2022-10-16T06:39:50;13.50;99.90
11963;DHT22;62678;52.130;5.584;2022-10-16T06:42:18;13.60;99.90
11963;DHT22;62678;52.130;5.584;2022-10-16T06:44:45;13.60;99.90
11963;DHT22;62678;52.130;5.584;2022-10-16T06:47:12;13.60;99.90
11963;DHT22;62678;52.130;5.584;2022-10-16T06:49:40;13.60;99.90
11963;DHT22;62678;52.130;5.584;2022-10-16T06:52:06;13.70;99.90
11963;DHT22;62678;52.130;5.584;2022-10-16T06:54:33;13.70;99.90
11963;DHT22;62678;52.130;5.584;2022-10-16T06:57:00;13.70;99.90
11963;DHT22;62678;52.130;5.584;2022-10-16T06:59:27;13.70;99.90
11963;DHT22;62678;52.130;5.584;2022-10-16T07:01:54;13.70;99.90
11963;DHT22;62678;52.130;5.584;2022-10-16T07:04:20;13.80;99.90
11963;DHT22;62678;52.130;5.584;2022-10-16T07:06:48;13.90;99.90
11963;DHT22;62678;52.130;5.584;2022-10-16T07:09:17;13.80;99.90
11963;DHT22;62678;52.130;5.584;2022-10-16T07:11:43;13.90;99.90
11963;DHT22;62678;52.130;5.584;2022-10-16T07:14:15;13.90;99.90
11963;DHT22;62678;52.130;5.584;2022-10-16T07:16:43;14.00;99.90
11963;DHT22;62678;52.130;5.584;2022-10-16T07:19:09;13.90;99.90
11963;DHT22;62678;52.130;5.584;2022-10-16T07:21:38;14.00;99.90
11963;DHT22;62678;52.130;5.584;2022-10-16T07:24:11;13.90;99.90
11963;DHT22;62678;52.130;5.584;2022-10-16T07:26:38;13.90;99.90
11963;DHT22;62678;52.130;5.584;2022-10-16T07:29:05;14.00;99.90
11963;DHT22;62678;52.130;5.584;2022-10-16T07:31:33;14.00;99.90
11963;DHT22;62678;52.130;5.584;2022-10-16T07:34:00;14.00;99.90
11963;DHT22;62678;52.130;5.584;2022-10-16T07:36:27;14.00;99.90
11963;DHT22;62678;52.130;5.584;2022-10-16T07:38:54;14.00;99.90
11963;DHT22;62678;52.130;5.584;2022-10-16T07:41:22;14.10;99.90
11963;DHT22;62678;52.130;5.584;2022-10-16T07:43:51;14.10;99.90
11963;DHT22;62678;52.130;5.584;2022-10-16T07:46:19;14.20;99.90
11963;DHT22;62678;52.130;5.584;2022-10-16T07:48:46;14.20;99.90
11963;DHT22;62678;52.130;5.584;2022-10-16T07:51:15;14.20;99.90
11963;DHT22;62678;52.130;5.584;2022-10-16T07:53:43;14.40;99.90
11963;DHT22;62678;52.130;5.584;2022-10-16T07:56:10;14.40;99.90
11963;DHT22;62678;52.130;5.584;2022-10-16T07:58:38;14.40;99.90
11963;DHT22;62678;52.130;5.584;2022-10-16T08:01:06;14.50;99.90
11963;DHT22;62678;52.130;5.584;2022-10-16T08:03:34;14.40;99.90
11963;DHT22;62678;52.130;5.584;2022-10-16T08:06:01;14.40;99.90
11963;DHT22;62678;52.130;5.584;2022-10-16T08:08:28;14.40;99.90
11963;DHT22;62678;52.130;5.584;2022-10-16T08:10:55;14.30;99.90
11963;DHT22;62678;52.130;5.584;2022-10-16T08:13:22;14.40;99.90
11963;DHT22;62678;52.130;5.584;2022-10-16T08:15:50;14.40;99.90
11963;DHT22;62678;52.130;5.584;2022-10-16T08:18:17;14.40;99.90
11963;DHT22;62678;52.130;5.584;2022-10-16T08:20:44;14.50;99.90
11963;DHT22;62678;52.130;5.584;2022-10-16T08:23:11;14.50;99.90
11963;DHT22;62678;52.130;5.584;2022-10-16T08:25:39;14.60;99.90
11963;DHT22;62678;52.130;5.584;2022-10-16T08:28:07;14.80;99.90
11963;DHT22;62678;52.130;5.584;2022-10-16T08:30:34;14.90;99.90
11963;DHT22;62678;52.130;5.584;2022-10-16T08:33:03;15.00;99.90
11963;DHT22;62678;52.130;5.584;2022-10-16T08:35:31;15.00;99.90
11963;DHT22;62678;52.130;5.584;2022-10-16T08:37:58;14.80;99.90
11963;DHT22;62678;52.130;5.584;2022-10-16T08:40:26;14.90;99.90
11963;DHT22;62678;52.130;5.584;2022-10-16T08:43:12;14.90;99.90
11963;DHT22;62678;52.130;5.584;2022-10-16T08:45:51;14.90;99.90
11963;DHT22;62678;52.130;5.584;2022-10-16T08:48:24;14.90;99.90
11963;DHT22;62678;52.130;5.584;2022-10-16T08:50:54;14.90;99.90
11963;DHT22;62678;52.130;5.584;2022-10-16T08:53:26;15.00;99.90
11963;DHT22;62678;52.130;5.584;2022-10-16T08:55:54;15.00;99.90
11963;DHT22;62678;52.130;5.584;2022-10-16T08:58:22;15.00;99.90
11963;DHT22;62678;52.130;5.584;2022-10-16T09:00:53;15.10;99.90
11963;DHT22;62678;52.130;5.584;2022-10-16T09:03:33;15.20;99.90
11963;DHT22;62678;52.130;5.584;2022-10-16T09:06:14;15.20;99.90
11963;DHT22;62678;52.130;5.584;2022-10-16T09:08:56;15.30;99.90
11963;DHT22;62678;52.130;5.584;2022-10-16T09:11:32;15.50;99.90
11963;DHT22;62678;52.130;5.584;2022-10-16T09:14:06;15.40;99.90
11963;DHT22;62678;52.130;5.584;2022-10-16T09:16:38;15.50;99.90
11963;DHT22;62678;52.130;5.584;2022-10-16T09:19:13;15.60;99.90
11963;DHT22;62678;52.130;5.584;2022-10-16T09:21:45;15.60;99.90
11963;DHT22;62678;52.130;5.584;2022-10-16T09:24:15;15.70;99.90
11963;DHT22;62678;52.130;5.584;2022-10-16T09:26:42;15.70;99.90
11963;DHT22;62678;52.130;5.584;2022-10-16T09:29:11;15.90;99.90
11963;DHT22;62678;52.130;5.584;2022-10-16T09:31:39;15.90;99.90
11963;DHT22;62678;52.130;5.584;2022-10-16T09:34:24;16.00;99.90
11963;DHT22;62678;52.130;5.584;2022-10-16T09:36:52;16.00;99.90
11963;DHT22;62678;52.130;5.584;2022-10-16T09:39:18;16.10;99.90
11963;DHT22;62678;52.130;5.584;2022-10-16T09:41:45;16.10;99.90
11963;DHT22;62678;52.130;5.584;2022-10-16T09:44:19;16.20;99.90
11963;DHT22;62678;52.130;5.584;2022-10-16T09:46:47;16.10;99.90
11963;DHT22;62678;52.130;5.584;2022-10-16T09:49:23;16.10;99.90
11963;DHT22;62678;52.130;5.584;2022-10-16T09:51:51;16.10;99.90
11963;DHT22;62678;52.130;5.584;2022-10-16T09:54:20;16.10;99.90
11963;DHT22;62678;52.130;5.584;2022-10-16T09:56:48;16.10;99.90
11963;DHT22;62678;52.130;5.584;2022-10-16T09:59:18;16.20;99.90
11963;DHT22;62678;52.130;5.584;2022-10-16T10:01:47;16.20;99.90
11963;DHT22;62678;52.130;5.584;2022-10-16T10:04:15;16.30;99.90
11963;DHT22;62678;52.130;5.584;2022-10-16T10:06:45;16.40;99.90
11963;DHT22;62678;52.130;5.584;2022-10-16T10:09:18;16.60;99.90
11963;DHT22;62678;52.130;5.584;2022-10-16T10:11:52;16.70;99.90
11963;DHT22;62678;52.130;5.584;2022-10-16T10:14:27;16.90;99.90
11963;DHT22;62678;52.130;5.584;2022-10-16T10:17:10;16.90;99.90
11963;DHT22;62678;52.130;5.584;2022-10-16T10:19:38;16.70;99.90
11963;DHT22;62678;52.130;5.584;2022-10-16T10:22:17;16.70;99.90
11963;DHT22;62678;52.130;5.584;2022-10-16T10:24:53;16.90;99.90
11963;DHT22;62678;52.130;5.584;2022-10-16T10:27:25;17.00;99.90
11963;DHT22;62678;52.130;5.584;2022-10-16T10:29:57;17.00;99.90
11963;DHT22;62678;52.130;5.584;2022-10-16T10:32:34;17.00;99.90
11963;DHT22;62678;52.130;5.584;2022-10-16T10:35:12;17.00;99.90
11963;DHT22;62678;52.130;5.584;2022-10-16T10:37:53;17.00;99.90
11963;DHT22;62678;52.130;5.584;2022-10-16T10:40:30;17.10;99.90
11963;DHT22;62678;52.130;5.584;2022-10-16T10:43:04;17.20;99.90
11963;DHT22;62678;52.130;5.584;2022-10-16T10:45:40;17.10;99.90
11963;DHT22;62678;52.130;5.584;2022-10-16T10:48:28;17.20;99.90
11963;DHT22;62678;52.130;5.584;2022-10-16T10:51:00;17.30;99.90
11963;DHT22;62678;52.130;5.584;2022-10-16T10:53:36;17.40;99.90
11963;DHT22;62678;52.130;5.584;2022-10-16T10:56:19;17.40;99.90
11963;DHT22;62678;52.130;5.584;2022-10-16T10:58:58;17.70;99.90
11963;DHT22;62678;52.130;5.584;2022-10-16T11:01:34;17.90;99.90
11963;DHT22;62678;52.130;5.584;2022-10-16T11:04:15;17.70;99.90
11963;DHT22;62678;52.130;5.584;2022-10-16T11:06:49;17.70;99.90
11963;DHT22;62678;52.130;5.584;2022-10-16T11:09:22;17.60;99.90
11963;DHT22;62678;52.130;5.584;2022-10-16T11:11:54;17.60;99.90
11963;DHT22;62678;52.130;5.584;2022-10-16T11:14:24;17.60;99.90
11963;DHT22;62678;52.130;5.584;2022-10-16T11:16:56;17.70;99.90
11963;DHT22;62678;52.130;5.584;2022-10-16T11:19:31;17.80;99.90
11963;DHT22;62678;52.130;5.584;2022-10-16T11:22:03;17.80;99.90
11963;DHT22;62678;52.130;5.584;2022-10-16T11:24:39;17.70;99.90
11963;DHT22;62678;52.130;5.584;2022-10-16T11:27:09;17.70;99.90
11963;DHT22;62678;52.130;5.584;2022-10-16T11:29:43;17.60;99.90
11963;DHT22;62678;52.130;5.584;2022-10-16T11:32:18;17.80;99.90
11963;DHT22;62678;52.130;5.584;2022-10-16T11:34:50;18.00;99.90
11963;DHT22;62678;52.130;5.584;2022-10-16T11:37:20;18.10;99.90
11963;DHT22;62678;52.130;5.584;2022-10-16T11:39:50;18.30;99.90
11963;DHT22;62678;52.130;5.584;2022-10-16T11:42:22;18.40;99.90
11963;DHT22;62678;52.130;5.584;2022-10-16T11:44:57;18.30;99.90
11963;DHT22;62678;52.130;5.584;2022-10-16T11:47:31;18.30;99.90
11963;DHT22;62678;52.130;5.584;2022-10-16T11:50:03;18.30;99.90
11963;DHT22;62678;52.130;5.584;2022-10-16T11:52:36;18.20;99.90
11963;DHT22;62678;52.130;5.584;2022-10-16T11:55:14;18.10;99.90
11963;DHT22;62678;52.130;5.584;2022-10-16T11:57:45;18.00;99.90
11963;DHT22;62678;52.130;5.584;2022-10-16T12:00:21;18.00;99.90
11963;DHT22;62678;52.130;5.584;2022-10-16T12:02:55;17.90;99.90
11963;DHT22;62678;52.130;5.584;2022-10-16T12:05:28;18.00;99.90
11963;DHT22;62678;52.130;5.584;2022-10-16T12:08:06;18.10;99.90
11963;DHT22;62678;52.130;5.584;2022-10-16T12:10:37;17.80;99.90
11963;DHT22;62678;52.130;5.584;2022-10-16T12:13:04;17.70;99.90
11963;DHT22;62678;52.130;5.584;2022-10-16T12:15:33;17.60;99.90
11963;DHT22;62678;52.130;5.584;2022-10-16T12:18:00;17.60;99.90
11963;DHT22;62678;52.130;5.584;2022-10-16T12:20:29;17.60;99.90
11963;DHT22;62678;52.130;5.584;2022-10-16T12:22:59;17.70;99.90
11963;DHT22;62678;52.130;5.584;2022-10-16T12:25:28;17.90;99.90
11963;DHT22;62678;52.130;5.584;2022-10-16T12:27:59;18.00;99.90
11963;DHT22;62678;52.130;5.584;2022-10-16T12:30:28;18.20;99.90
11963;DHT22;62678;52.130;5.584;2022-10-16T12:32:56;18.40;99.90
11963;DHT22;62678;52.130;5.584;2022-10-16T12:35:26;18.50;99.90
11963;DHT22;62678;52.130;5.584;2022-10-16T12:37:54;18.40;99.90
11963;DHT22;62678;52.130;5.584;2022-10-16T12:40:33;18.30;99.90
11963;DHT22;62678;52.130;5.584;2022-10-16T12:43:24;18.40;99.90
11963;DHT22;62678;52.130;5.584;2022-10-16T12:46:00;18.30;99.90
11963;DHT22;62678;52.130;5.584;2022-10-16T12:48:27;18.30;99.90
11963;DHT22;62678;52.130;5.584;2022-10-16T12:50:54;18.20;99.90
11963;DHT22;62678;52.130;5.584;2022-10-16T12:53:22;18.20;99.90
11963;DHT22;62678;52.130;5.584;2022-10-16T12:55:56;18.30;99.90
11963;DHT22;62678;52.130;5.584;2022-10-16T12:58:47;18.20;99.90
11963;DHT22;62678;52.130;5.584;2022-10-16T13:01:25;18.30;99.90
11963;DHT22;62678;52.130;5.584;2022-10-16T13:04:10;18.30;99.90
11963;DHT22;62678;52.130;5.584;2022-10-16T13:06:45;18.30;99.90
11963;DHT22;62678;52.130;5.584;2022-10-16T13:09:37;18.30;99.90
11963;DHT22;62678;52.130;5.584;2022-10-16T13:12:15;18.50;99.90
11963;DHT22;62678;52.130;5.584;2022-10-16T13:15:03;18.60;99.90
11963;DHT22;62678;52.130;5.584;2022-10-16T13:17:38;18.60;99.90
11963;DHT22;62678;52.130;5.584;2022-10-16T13:20:15;18.60;99.90
11963;DHT22;62678;52.130;5.584;2022-10-16T13:22:50;18.70;99.90
11963;DHT22;62678;52.130;5.584;2022-10-16T13:25:24;18.90;99.90
11963;DHT22;62678;52.130;5.584;2022-10-16T13:27:57;18.90;99.90
11963;DHT22;62678;52.130;5.584;2022-10-16T13:30:28;19.10;99.90
11963;DHT22;62678;52.130;5.584;2022-10-16T13:33:00;18.90;99.90
11963;DHT22;62678;52.130;5.584;2022-10-16T13:35:29;18.90;99.90
11963;DHT22;62678;52.130;5.584;2022-10-16T13:38:13;18.80;99.90
11963;DHT22;62678;52.130;5.584;2022-10-16T13:40:52;18.80;99.90
11963;DHT22;62678;52.130;5.584;2022-10-16T13:43:20;18.70;99.90
11963;DHT22;62678;52.130;5.584;2022-10-16T13:46:01;18.70;99.90
11963;DHT22;62678;52.130;5.584;2022-10-16T13:48:29;18.70;99.90
11963;DHT22;62678;52.130;5.584;2022-10-16T13:51:05;18.60;99.90
11963;DHT22;62678;52.130;5.584;2022-10-16T13:53:34;18.30;99.90
11963;DHT22;62678;52.130;5.584;2022-10-16T13:56:02;18.60;99.90
11963;DHT22;62678;52.130;5.584;2022-10-16T13:58:29;18.60;99.90
11963;DHT22;62678;52.130;5.584;2022-10-16T14:00:59;18.80;99.90
11963;DHT22;62678;52.130;5.584;2022-10-16T14:03:27;18.90;99.90
11963;DHT22;62678;52.130;5.584;2022-10-16T14:05:56;18.90;99.90
11963;DHT22;62678;52.130;5.584;2022-10-16T14:08:25;18.90;99.90
11963;DHT22;62678;52.130;5.584;2022-10-16T14:10:54;18.90;99.90
11963;DHT22;62678;52.130;5.584;2022-10-16T14:13:29;19.00;99.90
11963;DHT22;62678;52.130;5.584;2022-10-16T14:15:56;19.00;99.90
11963;DHT22;62678;52.130;5.584;2022-10-16T14:18:27;19.00;99.90
11963;DHT22;62678;52.130;5.584;2022-10-16T14:20:55;18.90;99.90
11963;DHT22;62678;52.130;5.584;2022-10-16T14:23:30;19.00;99.90
11963;DHT22;62678;52.130;5.584;2022-10-16T14:26:06;19.00;99.90
11963;DHT22;62678;52.130;5.584;2022-10-16T14:28:40;19.00;99.90
11963;DHT22;62678;52.130;5.584;2022-10-16T14:31:25;18.80;99.90
11963;DHT22;62678;52.130;5.584;2022-10-16T14:33:53;18.80;99.90
11963;DHT22;62678;52.130;5.584;2022-10-16T14:36:21;18.90;99.90
11963;DHT22;62678;52.130;5.584;2022-10-16T14:38:57;18.90;99.90
11963;DHT22;62678;52.130;5.584;2022-10-16T14:41:24;18.90;99.90
11963;DHT22;62678;52.130;5.584;2022-10-16T14:43:53;18.80;99.90
11963;DHT22;62678;52.130;5.584;2022-10-16T14:46:22;18.80;99.90
11963;DHT22;62678;52.130;5.584;2022-10-16T14:49:00;18.90;99.90
11963;DHT22;62678;52.130;5.584;2022-10-16T14:51:29;18.90;99.90
11963;DHT22;62678;52.130;5.584;2022-10-16T14:53:55;18.80;99.90
11963;DHT22;62678;52.130;5.584;2022-10-16T14:56:24;18.70;99.90
11963;DHT22;62678;52.130;5.584;2022-10-16T14:58:51;18.70;99.90
11963;DHT22;62678;52.130;5.584;2022-10-16T15:01:18;18.80;99.90
11963;DHT22;62678;52.130;5.584;2022-10-16T15:03:45;18.70;99.90
11963;DHT22;62678;52.130;5.584;2022-10-16T15:06:14;18.60;99.90
11963;DHT22;62678;52.130;5.584;2022-10-16T15:08:41;18.70;99.90
11963;DHT22;62678;52.130;5.584;2022-10-16T15:11:10;18.60;99.90
11963;DHT22;62678;52.130;5.584;2022-10-16T15:13:38;18.60;99.90
11963;DHT22;62678;52.130;5.584;2022-10-16T15:16:08;18.50;99.90
11963;DHT22;62678;52.130;5.584;2022-10-16T15:18:36;18.70;99.90
11963;DHT22;62678;52.130;5.584;2022-10-16T15:21:03;19.00;99.90
11963;DHT22;62678;52.130;5.584;2022-10-16T15:23:32;18.90;99.90
11963;DHT22;62678;52.130;5.584;2022-10-16T15:25:59;18.70;99.90
11963;DHT22;62678;52.130;5.584;2022-10-16T15:28:26;18.80;99.90
11963;DHT22;62678;52.130;5.584;2022-10-16T15:30:54;18.70;99.90
11963;DHT22;62678;52.130;5.584;2022-10-16T15:33:24;18.60;99.90
11963;DHT22;62678;52.130;5.584;2022-10-16T15:35:54;18.50;99.90
11963;DHT22;62678;52.130;5.584;2022-10-16T15:38:22;18.30;99.90
11963;DHT22;62678;52.130;5.584;2022-10-16T15:40:50;18.30;99.90
11963;DHT22;62678;52.130;5.584;2022-10-16T15:43:17;18.40;99.90
11963;DHT22;62678;52.130;5.584;2022-10-16T15:45:44;18.20;99.90
11963;DHT22;62678;52.130;5.584;2022-10-16T15:48:21;17.90;99.90